createdAt,value
2022-08-07T00:41:01.238Z,100941.00
2022-08-07T00:44:00.314Z,100946.25
2022-08-07T00:46:16.716Z,100946.50
2022-08-07T00:48:45.316Z,100943.72
2022-08-07T00:51:17.825Z,100949.78
2022-08-07T00:53:50.862Z,100942.03
2022-08-07T00:56:30.074Z,100942.28
2022-08-07T00:58:58.140Z,100944.69
2022-08-07T01:01:26.261Z,100943.63
2022-08-07T01:04:00.187Z,100948.44
2022-08-07T01:06:29.693Z,100942.06
2022-08-07T01:09:00.660Z,100937.09
2022-08-07T01:12:10.299Z,100941.50
2022-08-07T01:14:21.304Z,100945.00
2022-08-07T01:16:57.011Z,100946.34
2022-08-07T01:19:26.759Z,100944.84
2022-08-07T01:21:55.721Z,100943.44
2022-08-07T01:24:23.943Z,100942.09
2022-08-07T01:26:52.758Z,100940.63
2022-08-07T01:29:27.723Z,100946.47
2022-08-07T01:31:59.372Z,100952.84
2022-08-07T01:34:31.184Z,100942.28
2022-08-07T01:37:01.327Z,100943.72
2022-08-07T01:39:41.184Z,100951.09
2022-08-07T01:42:38.842Z,100950.56
2022-08-07T01:45:09.640Z,100955.75
2022-08-07T01:48:21.722Z,100957.69
2022-08-07T01:50:32.961Z,100948.63
2022-08-07T01:53:08.886Z,100955.91
2022-08-07T01:55:42.597Z,100952.13
2022-08-07T01:58:29.343Z,100955.84
2022-08-07T02:01:25.537Z,100956.41
2022-08-07T02:04:03.556Z,100955.78
2022-08-07T02:06:36.123Z,100950.63
2022-08-07T02:09:07.535Z,100949.38
2022-08-07T02:12:04.279Z,100951.09
2022-08-07T02:14:40.552Z,100962.66
2022-08-07T02:17:13.116Z,100952.91
2022-08-07T02:20:05.789Z,100960.38
2022-08-07T02:22:43.697Z,100952.53
2022-08-07T02:25:18.065Z,100959.16
2022-08-07T02:27:52.143Z,100959.09
2022-08-07T02:30:21.390Z,100965.41
2022-08-07T02:33:03.928Z,100959.72
2022-08-07T02:36:30.134Z,100963.03
2022-08-07T02:38:35.624Z,100970.34
2022-08-07T02:41:04.661Z,100964.38
2022-08-07T02:43:35.477Z,100969.09
2022-08-07T02:46:09.113Z,100978.97
2022-08-07T02:48:38.110Z,100971.97
2022-08-07T02:51:14.256Z,100979.94
2022-08-07T02:54:01.876Z,100980.19
2022-08-07T02:56:31.739Z,100983.38
2022-08-07T02:59:02.468Z,100988.94
2022-08-07T03:01:35.085Z,100981.28
2022-08-07T03:04:12.371Z,100985.22
2022-08-07T03:06:44.758Z,100989.75
2022-08-07T03:09:14.079Z,100986.63
2022-08-07T03:11:52.544Z,100991.13
2022-08-07T03:14:26.237Z,100987.34
2022-08-07T03:16:57.202Z,100989.38
2022-08-07T03:19:28.987Z,100988.44
2022-08-07T03:22:07.027Z,100984.81
2022-08-07T03:24:36.614Z,100993.78
2022-08-07T03:27:09.023Z,100990.63
2022-08-07T03:29:50.503Z,100990.50
2022-08-07T03:32:41.276Z,100987.41
2022-08-07T03:35:43.927Z,100997.31
2022-08-07T03:38:21.431Z,100990.59
2022-08-07T03:40:57.883Z,100997.56
2022-08-07T03:43:32.466Z,101003.91
2022-08-07T03:46:10.387Z,101002.19
2022-08-07T03:49:02.982Z,101007.72
2022-08-07T03:51:47.776Z,100994.34
2022-08-07T03:54:36.538Z,100999.63
2022-08-07T03:57:09.904Z,100997.06
2022-08-07T04:00:01.681Z,100996.06
2022-08-07T04:02:32.401Z,100995.09
2022-08-07T04:05:01.438Z,100998.09
2022-08-07T04:07:36.292Z,100989.69
2022-08-07T04:10:15.385Z,100990.00
2022-08-07T04:12:43.560Z,100994.38
2022-08-07T04:15:12.470Z,101003.38
2022-08-07T04:18:30.865Z,101006.06
2022-08-07T04:20:32.043Z,101002.81
2022-08-07T04:23:06.222Z,101001.97
2022-08-07T04:25:39.414Z,101003.38
2022-08-07T04:28:13.367Z,101009.47
2022-08-07T04:30:55.526Z,101009.47
2022-08-07T04:33:26.842Z,101017.97
2022-08-07T04:35:55.519Z,101008.97
2022-08-07T04:38:26.788Z,101015.09
2022-08-07T04:40:56.685Z,101016.34
2022-08-07T04:44:12.334Z,101017.25
2022-08-07T04:46:34.509Z,101023.47
2022-08-07T04:49:18.119Z,101019.69
2022-08-07T04:52:14.680Z,101020.53
2022-08-07T04:54:50.411Z,101015.66
2022-08-07T04:58:11.626Z,101012.91
2022-08-07T05:00:43.231Z,101006.38
2022-08-07T05:04:06.687Z,101017.78
2022-08-07T05:06:43.441Z,101013.41
2022-08-07T05:09:46.250Z,101018.13
2022-08-07T05:12:27.363Z,101014.88
2022-08-07T05:15:23.325Z,101010.50
2022-08-07T05:18:00.848Z,101016.06
2022-08-07T05:20:48.103Z,101018.59
2022-08-07T05:23:35.635Z,101015.88
2022-08-07T05:26:13.607Z,101018.34
2022-08-07T05:28:50.097Z,101016.50
2022-08-07T05:31:23.685Z,101031.09
2022-08-07T05:34:04.620Z,101025.09
2022-08-07T05:36:35.731Z,101024.56
2022-08-07T05:40:05.864Z,101026.78
2022-08-07T05:42:01.468Z,101033.66
2022-08-07T05:44:34.481Z,101018.00
2022-08-07T05:47:18.192Z,101034.00
2022-08-07T05:49:51.388Z,101038.69
2022-08-07T05:52:20.039Z,101033.50
2022-08-07T05:54:55.407Z,101028.78
2022-08-07T05:57:26.662Z,101036.81
2022-08-07T06:00:01.322Z,101032.66
2022-08-07T06:02:33.178Z,101038.44
2022-08-07T06:05:06.178Z,101040.66
2022-08-07T06:08:13.682Z,101044.53
2022-08-07T06:10:24.147Z,101049.44
2022-08-07T06:12:52.289Z,101045.59
2022-08-07T06:15:20.835Z,101044.44
2022-08-07T06:17:53.567Z,101048.25
2022-08-07T06:20:31.948Z,101045.47
2022-08-07T06:23:25.098Z,101038.81
2022-08-07T06:26:02.442Z,101042.09
2022-08-07T06:28:30.945Z,101035.13
2022-08-07T06:30:59.284Z,101040.91
2022-08-07T06:33:27.428Z,101039.44
2022-08-07T06:36:06.687Z,101039.16
2022-08-07T06:38:58.581Z,101035.78
2022-08-07T06:42:01.935Z,101042.03
2022-08-07T06:44:36.864Z,101044.41
2022-08-07T06:47:12.104Z,101039.34
2022-08-07T06:49:51.160Z,101043.41
2022-08-07T06:52:31.765Z,101035.06
2022-08-07T06:55:32.756Z,101033.00
2022-08-07T06:57:59.985Z,101045.03
2022-08-07T07:00:32.813Z,101043.88
2022-08-07T07:03:08.771Z,101040.69
2022-08-07T07:06:02.530Z,101041.41
2022-08-07T07:08:31.085Z,101045.78
2022-08-07T07:11:01.786Z,101039.53
2022-08-07T07:13:57.790Z,101043.41
2022-08-07T07:16:34.108Z,101045.34
2022-08-07T07:19:55.895Z,101039.53
2022-08-07T07:22:33.920Z,101047.50
2022-08-07T07:25:02.429Z,101049.00
2022-08-07T07:27:56.255Z,101037.91
2022-08-07T07:30:38.514Z,101048.78
2022-08-07T07:33:12.601Z,101043.44
2022-08-07T07:36:03.889Z,101042.25
2022-08-07T07:38:34.970Z,101037.66
2022-08-07T07:41:08.856Z,101037.06
2022-08-07T07:44:13.920Z,101042.44
2022-08-07T07:46:37.800Z,101040.81
2022-08-07T07:50:33.519Z,101041.59
2022-08-07T07:52:15.910Z,101040.25
2022-08-07T07:54:51.252Z,101037.09
2022-08-07T07:57:43.680Z,101039.88
2022-08-07T08:00:14.985Z,101043.03
2022-08-07T08:03:04.612Z,101041.59
2022-08-07T08:05:54.005Z,101044.19
2022-08-07T08:08:34.372Z,101045.47
2022-08-07T08:11:13.605Z,101047.31
2022-08-07T08:13:53.062Z,101044.66
2022-08-07T08:16:50.478Z,101044.09
2022-08-07T08:20:18.118Z,101048.28
2022-08-07T08:22:54.147Z,101043.94
2022-08-07T08:25:49.372Z,101041.78
2022-08-07T08:28:24.047Z,101042.53
2022-08-07T08:31:15.929Z,101038.91
2022-08-07T08:33:49.441Z,101032.03
2022-08-07T08:36:29.782Z,101033.50
2022-08-07T08:39:01.746Z,101033.91
2022-08-07T08:41:58.297Z,101027.22
2022-08-07T08:44:44.678Z,101026.16
2022-08-07T08:47:25.377Z,101028.94
2022-08-07T08:50:20.564Z,101036.09
2022-08-07T08:53:09.917Z,101025.66
2022-08-07T08:56:05.210Z,101029.47
2022-08-07T08:58:50.436Z,101029.00
2022-08-07T09:01:30.017Z,101030.31
2022-08-07T09:04:13.573Z,101027.03
2022-08-07T09:07:01.319Z,101032.31
2022-08-07T09:09:41.254Z,101030.03
2022-08-07T09:12:30.983Z,101028.53
2022-08-07T09:16:21.670Z,101033.97
2022-08-07T09:18:22.859Z,101022.09
2022-08-07T09:22:23.102Z,101034.59
2022-08-07T09:25:07.018Z,101035.97
2022-08-07T09:28:03.449Z,101027.94
2022-08-07T09:31:09.022Z,101037.41
2022-08-07T09:33:58.197Z,101033.16
2022-08-07T09:36:42.950Z,101029.03
2022-08-07T09:39:54.569Z,101029.41
2022-08-07T09:42:39.248Z,101026.03
2022-08-07T09:47:23.455Z,101031.44
2022-08-07T09:48:19.211Z,101027.28
2022-08-07T09:51:03.381Z,101026.44
2022-08-07T09:53:55.110Z,101036.34
2022-08-07T09:56:34.042Z,101024.25
2022-08-07T09:59:21.608Z,101033.34
2022-08-07T10:01:55.561Z,101027.22
2022-08-07T10:04:47.760Z,101019.53
2022-08-07T10:07:58.224Z,101017.53
2022-08-07T10:14:01.546Z,101025.81
2022-08-07T10:16:49.528Z,101023.81
2022-08-07T10:19:41.866Z,101017.28
2022-08-07T10:22:33.673Z,101028.97
2022-08-07T10:25:24.931Z,101014.63
2022-08-07T10:28:23.719Z,101016.72
2022-08-07T10:31:16.038Z,101007.41
2022-08-07T10:34:15.313Z,101009.38
2022-08-07T10:37:12.349Z,101008.19
2022-08-07T10:40:06.255Z,101004.75
2022-08-07T10:42:43.324Z,100998.91
2022-08-07T10:45:57.783Z,101007.06
2022-08-07T10:48:41.904Z,101001.00
2022-08-07T10:52:01.801Z,101003.28
2022-08-07T10:54:55.222Z,100996.50
2022-08-07T10:57:43.435Z,101005.78
2022-08-07T11:00:36.523Z,100999.72
2022-08-07T11:03:16.253Z,101004.75
2022-08-07T11:06:03.063Z,101007.09
2022-08-07T11:09:03.188Z,100997.59
2022-08-07T11:12:31.284Z,100997.78
2022-08-07T11:15:09.654Z,100993.16
2022-08-07T11:17:50.214Z,100998.84
2022-08-07T11:20:26.752Z,100990.81
2022-08-07T11:23:03.361Z,100990.59
2022-08-07T11:25:48.026Z,100981.69
2022-08-07T11:28:43.107Z,100988.72
2022-08-07T11:31:35.372Z,100988.78
2022-08-07T11:34:24.867Z,100974.44
2022-08-07T11:37:13.318Z,100972.94
2022-08-07T11:40:03.929Z,100976.09
2022-08-07T11:42:37.696Z,100971.63
2022-08-07T11:45:23.776Z,100969.66
2022-08-07T11:48:29.564Z,100970.00
2022-08-07T11:51:44.771Z,100968.16
2022-08-07T11:54:33.731Z,100965.81
2022-08-07T11:57:57.761Z,100950.41
2022-08-07T12:00:19.035Z,100947.84
2022-08-07T12:02:52.016Z,100956.13
2022-08-07T12:05:28.833Z,100957.25
2022-08-07T12:08:34.761Z,100955.38
2022-08-07T12:11:21.834Z,100957.03
2022-08-07T12:14:01.278Z,100958.00
2022-08-07T12:16:35.457Z,100947.25
2022-08-07T12:19:22.085Z,100948.78
2022-08-07T12:22:38.014Z,100945.41
2022-08-07T12:26:03.522Z,100944.06
2022-08-07T12:28:49.596Z,100941.97
2022-08-07T12:31:53.304Z,100945.97
2022-08-07T12:34:39.326Z,100947.06
2022-08-07T12:37:17.040Z,100949.44
2022-08-07T12:39:53.211Z,100938.50
2022-08-07T12:42:27.571Z,100932.41
2022-08-07T12:45:06.439Z,100931.78
2022-08-07T12:47:41.026Z,100935.41
2022-08-07T12:50:34.358Z,100932.69
2022-08-07T12:53:27.618Z,100936.00
2022-08-07T12:56:34.528Z,100924.81
2022-08-07T12:59:08.340Z,100933.97
2022-08-07T13:01:54.787Z,100923.75
2022-08-07T13:04:32.615Z,100929.59
2022-08-07T13:07:02.536Z,100920.44
2022-08-07T13:10:19.707Z,100922.38
2022-08-07T13:13:05.785Z,100924.06
2022-08-07T13:15:59.306Z,100914.84
2022-08-07T13:18:50.801Z,100920.44
2022-08-07T13:21:50.230Z,100917.66
2022-08-07T13:24:34.747Z,100922.97
2022-08-07T13:27:10.652Z,100922.19
2022-08-07T13:29:52.369Z,100918.19
2022-08-07T13:32:49.198Z,100921.41
2022-08-07T13:36:00.309Z,100925.28
2022-08-07T13:56:51.684Z,100905.66
2022-08-07T13:59:27.607Z,100911.56
2022-08-07T14:02:05.253Z,100911.09
2022-08-07T14:04:47.443Z,100910.06
2022-08-07T14:07:23.762Z,100905.03
2022-08-07T14:10:03.043Z,100906.66
2022-08-07T14:12:58.721Z,100896.34
2022-08-07T14:15:43.357Z,100898.06
2022-08-07T14:18:29.741Z,100896.38
2022-08-07T14:22:00.495Z,100895.31
2022-08-07T14:24:09.370Z,100896.16
2022-08-07T14:26:50.343Z,100898.09
2022-08-07T14:30:07.186Z,100903.53
2022-08-07T14:32:16.257Z,100894.56
2022-08-07T14:34:49.288Z,100903.75
2022-08-07T14:37:23.790Z,100895.56
2022-08-07T14:40:17.944Z,100908.53
2022-08-07T14:46:01.021Z,100899.69
2022-08-07T14:48:37.115Z,100897.19
2022-08-07T14:56:50.431Z,100903.25
2022-08-07T15:00:04.396Z,100908.66
2022-08-07T15:02:31.739Z,100896.03
2022-08-07T15:05:02.694Z,100910.63
2022-08-07T15:07:47.615Z,100914.25
2022-08-07T15:13:25.280Z,100916.06
2022-08-07T15:15:58.885Z,100921.13
2022-08-07T15:18:41.589Z,100924.88
2022-08-07T15:21:58.622Z,100927.00
2022-08-07T15:25:15.573Z,100916.81
2022-08-07T15:27:29.034Z,100927.56
2022-08-07T15:30:16.052Z,100925.59
2022-08-07T15:33:01.539Z,100935.72
2022-08-07T15:38:51.830Z,100928.44
2022-08-07T15:44:17.441Z,100938.06
2022-08-07T15:46:52.594Z,100933.56
2022-08-07T15:52:30.172Z,100935.66
2022-08-07T15:55:08.899Z,100946.09
2022-08-07T15:57:48.109Z,100946.88
2022-08-07T16:00:31.713Z,100954.84
2022-08-07T16:03:04.865Z,100955.16
2022-08-07T16:05:34.962Z,100958.19
2022-08-07T16:08:32.778Z,100961.59
2022-08-07T16:11:17.475Z,100957.09
2022-08-07T16:14:14.126Z,100963.28
2022-08-07T16:17:03.319Z,100976.63
2022-08-07T16:20:33.345Z,100973.44
2022-08-07T16:23:54.150Z,100968.84
2022-08-07T16:26:10.951Z,100973.38
2022-08-07T16:30:05.938Z,100974.09
2022-08-07T16:32:35.097Z,100969.81
2022-08-07T16:35:59.326Z,100979.91
2022-08-07T16:38:59.886Z,100980.09
2022-08-07T16:41:41.053Z,100982.97
2022-08-07T16:44:47.377Z,100982.06
2022-08-07T16:47:51.216Z,100988.13
2022-08-07T16:50:48.285Z,100989.19
2022-08-07T16:54:03.107Z,100991.03
2022-08-07T16:56:45.408Z,101012.53
2022-08-07T16:59:51.309Z,101010.28
2022-08-07T17:02:52.517Z,101016.44
2022-08-07T17:06:29.000Z,101008.22
2022-08-07T17:08:19.082Z,101012.09
2022-08-07T17:10:57.576Z,101019.28
2022-08-07T17:14:18.570Z,101022.16
2022-08-07T17:16:57.803Z,101031.38
2022-08-07T17:20:02.935Z,101024.94
2022-08-07T17:22:45.945Z,101022.22
2022-08-07T17:25:18.487Z,101021.28
2022-08-07T17:28:06.826Z,101021.34
2022-08-07T17:31:16.428Z,101025.25
2022-08-07T17:34:34.538Z,101036.97
2022-08-07T17:38:09.875Z,101038.06
2022-08-07T17:40:50.629Z,101036.66
2022-08-07T17:44:01.401Z,101034.38
2022-08-07T17:46:34.264Z,101042.41
2022-08-07T17:49:23.925Z,101038.38
2022-08-07T17:52:18.369Z,101035.72
2022-08-07T17:54:54.318Z,101036.53
2022-08-07T17:57:58.752Z,101041.16
2022-08-07T18:00:34.712Z,101039.78
2022-08-07T18:04:04.593Z,101047.88
2022-08-07T18:06:36.921Z,101040.16
2022-08-07T18:09:08.692Z,101040.41
2022-08-07T18:12:07.902Z,101049.19
2022-08-07T18:15:34.374Z,101050.09
2022-08-07T18:18:47.271Z,101053.91
2022-08-07T18:21:27.463Z,101049.28
2022-08-07T18:24:11.341Z,101051.75
2022-08-07T18:27:38.440Z,101050.91
2022-08-07T18:30:32.516Z,101050.41
2022-08-07T18:33:36.653Z,101049.06
2022-08-07T18:36:32.762Z,101057.44
2022-08-07T18:40:06.871Z,101057.47
2022-08-07T18:42:31.696Z,101051.81
2022-08-07T18:45:43.881Z,101058.66
2022-08-07T18:48:38.232Z,101059.81
2022-08-07T18:52:35.402Z,101068.09
2022-08-07T18:54:33.607Z,101061.84
2022-08-07T18:57:30.167Z,101064.66
2022-08-07T19:00:32.827Z,101060.03
2022-08-07T19:03:35.402Z,101067.28
2022-08-07T19:06:16.390Z,101063.69
2022-08-07T19:08:54.685Z,101065.38
2022-08-07T19:12:03.879Z,101063.72
2022-08-07T19:16:02.759Z,101060.16
2022-08-07T19:18:11.420Z,101053.28
2022-08-07T19:21:08.428Z,101054.94
2022-08-07T19:23:58.212Z,101047.50
2022-08-07T19:26:47.925Z,101051.63
2022-08-07T19:30:59.993Z,101047.25
2022-08-07T19:32:26.595Z,101043.38
2022-08-07T19:35:03.258Z,101045.03
2022-08-07T19:37:56.237Z,101040.34
2022-08-07T19:40:31.904Z,101054.13
2022-08-07T19:43:12.824Z,101043.94
2022-08-07T19:46:09.385Z,101048.38
2022-08-07T19:48:54.039Z,101043.97
2022-08-07T19:51:52.782Z,101045.63
2022-08-07T19:54:33.414Z,101047.25
2022-08-07T19:57:59.982Z,101044.50
2022-08-07T20:00:02.136Z,101050.03
2022-08-07T20:02:39.100Z,101054.97
2022-08-07T20:05:12.698Z,101048.34
2022-08-07T20:07:50.795Z,101054.97
2022-08-07T20:10:37.368Z,101057.75
2022-08-07T20:13:26.933Z,101052.22
2022-08-07T20:15:58.387Z,101062.97
2022-08-07T20:18:32.670Z,101059.38
2022-08-07T20:21:21.189Z,101064.34
2022-08-07T20:24:03.857Z,101065.16
2022-08-07T20:26:45.183Z,101065.44
2022-08-07T20:29:48.672Z,101069.84
2022-08-07T20:32:22.942Z,101067.63
2022-08-07T20:34:57.745Z,101069.28
2022-08-07T20:37:33.818Z,101073.69
2022-08-07T20:40:31.399Z,101074.78
2022-08-07T20:42:57.535Z,101074.78
2022-08-07T20:45:32.840Z,101078.63
2022-08-07T20:48:28.827Z,101087.38
2022-08-07T20:51:01.488Z,101083.53
2022-08-07T20:54:02.187Z,101085.19
2022-08-07T20:56:30.747Z,101088.47
2022-08-07T20:59:05.072Z,101081.03
2022-08-07T21:01:45.351Z,101080.19
2022-08-07T21:04:22.395Z,101091.19
2022-08-07T21:06:55.106Z,101083.47
2022-08-07T21:09:51.603Z,101090.06
2022-08-07T21:12:28.604Z,101094.19
2022-08-07T21:15:01.328Z,101085.63
2022-08-07T21:18:20.243Z,101083.97
2022-08-07T21:20:29.701Z,101091.13
2022-08-07T21:23:08.280Z,101097.16
2022-08-07T21:26:01.328Z,101087.81
2022-08-07T21:28:48.306Z,101099.34
2022-08-07T21:31:49.158Z,101094.13
2022-08-07T21:34:31.876Z,101098.75
2022-08-07T21:37:22.636Z,101100.09
2022-08-07T21:39:51.657Z,101101.44
2022-08-07T21:42:49.191Z,101095.94
2022-08-07T21:46:09.279Z,101098.75
2022-08-07T21:48:42.660Z,101109.91
2022-08-07T21:51:51.347Z,101105.75
2022-08-07T21:54:46.075Z,101110.44
2022-08-07T21:57:44.557Z,101105.75
2022-08-07T22:00:22.248Z,101103.53
2022-08-07T22:02:58.194Z,101102.97
2022-08-07T22:05:45.286Z,101110.66
2022-08-07T22:08:18.917Z,101110.66
2022-08-07T22:10:55.412Z,101108.72
2022-08-07T22:13:50.467Z,101104.84
2022-08-07T22:16:42.879Z,101102.94
2022-08-07T22:19:23.498Z,101102.94
2022-08-07T22:22:18.199Z,101103.44
2022-08-07T22:25:08.414Z,101101.22
2022-08-07T22:28:07.894Z,101100.69
2022-08-07T22:31:08.953Z,101107.59
2022-08-07T22:33:56.622Z,101099.91
2022-08-07T22:36:52.969Z,101097.88
2022-08-07T22:39:35.338Z,101096.19
2022-08-07T22:42:29.599Z,101093.97
2022-08-07T22:45:04.014Z,101101.94
2022-08-07T22:48:13.752Z,101101.94
2022-08-07T22:51:36.427Z,101100.00
2022-08-07T22:54:16.384Z,101099.31
2022-08-07T22:57:05.968Z,101102.41
2022-08-07T22:59:49.779Z,101094.47
2022-08-07T23:02:44.374Z,101099.38
2022-08-07T23:06:14.752Z,101099.88
2022-08-07T23:08:30.328Z,101105.38
2022-08-07T23:11:13.314Z,101103.31
2022-08-07T23:14:15.397Z,101107.44
2022-08-07T23:17:20.174Z,101114.56
2022-08-07T23:20:40.220Z,101114.81
2022-08-07T23:24:05.233Z,101116.22
2022-08-07T23:26:50.258Z,101125.84
2022-08-07T23:29:43.184Z,101123.44
2022-08-07T23:34:23.841Z,101112.06
2022-08-07T23:35:55.699Z,101122.34
2022-08-07T23:38:59.933Z,101110.16
2022-08-07T23:42:04.300Z,101107.41
2022-08-07T23:45:06.754Z,101110.59
2022-08-07T23:48:15.750Z,101101.84
2022-08-07T23:50:59.105Z,101109.84
2022-08-07T23:53:51.330Z,101110.88
2022-08-07T23:56:53.549Z,101114.34
